Time;durP1;ratioP1;P1;durP2;ratioP2;P2;SDS_P1;SDS_P2;PMS_P1;PMS_P2;Temp;Humidity;BMP_temperature;BMP_pressure;BME280_temperature;BME280_humidity;BME280_pressure;Samples;Min_cycle;Max_cycle;Signal;HPM_P1;HPM_P2
2021/08/25 00:00:38;;;;;;;2.67;2.20;;;19.90;57.50;;;;;;5073323;28;20666;-82
2021/08/25 00:03:05;;;;;;;2.75;2.20;;;20.00;57.50;;;;;;5039087;28;20504;-82
2021/08/25 00:05:31;;;;;;;2.53;1.98;;;19.90;57.50;;;;;;5037822;28;20151;-81
2021/08/25 00:08:00;;;;;;;4.10;2.60;;;20.00;57.50;;;;;;5037742;28;20159;-81
2021/08/25 00:10:26;;;;;;;3.22;2.47;;;20.00;57.50;;;;;;5021289;28;20179;-81
2021/08/25 00:12:56;;;;;;;2.83;2.28;;;20.00;58.10;;;;;;5037901;28;20163;-82
2021/08/25 00:15:22;;;;;;;3.38;2.45;;;19.90;57.40;;;;;;5090371;28;20186;-82
2021/08/25 00:17:48;;;;;;;3.35;2.78;;;20.00;57.50;;;;;;5024838;28;20353;-82
2021/08/25 00:20:14;;;;;;;3.88;2.70;;;20.00;57.50;;;;;;5024249;28;20217;-82
2021/08/25 00:22:40;;;;;;;3.85;2.60;;;20.00;57.50;;;;;;5059037;28;20154;-83
2021/08/25 00:25:11;;;;;;;3.22;2.30;;;19.90;57.40;;;;;;5040770;28;20164;-81
2021/08/25 00:27:37;;;;;;;3.65;2.58;;;20.00;57.50;;;;;;5075514;28;20189;-82
2021/08/25 00:30:04;;;;;;;3.00;2.30;;;20.00;57.50;;;;;;5025177;28;20169;-82
2021/08/25 00:32:29;;;;;;;2.75;2.20;;;19.90;57.50;;;;;;5041044;28;20154;-84
2021/08/25 00:34:56;;;;;;;3.55;2.42;;;20.00;57.50;;;;;;5024188;28;20185;-83
2021/08/25 00:37:23;;;;;;;3.83;2.60;;;20.00;57.50;;;;;;5023707;28;20205;-81
2021/08/25 00:39:51;;;;;;;3.20;2.38;;;20.00;57.50;;;;;;5007042;28;20214;-83
2021/08/25 00:42:20;;;;;;;3.33;2.50;;;19.90;57.50;;;;;;5109019;28;20202;-81
2021/08/25 00:44:48;;;;;;;3.47;2.40;;;19.90;57.50;;;;;;5076230;28;20293;-81
2021/08/25 00:47:20;;;;;;;3.47;2.58;;;20.00;57.50;;;;;;4949001;28;20179;-84
2021/08/25 00:49:50;;;;;;;4.00;2.60;;;19.90;57.50;;;;;;5047782;28;20202;-83
2021/08/25 00:52:21;;;;;;;3.30;2.40;;;20.00;57.50;;;;;;5047701;28;20550;-82
2021/08/25 00:54:48;;;;;;;3.65;2.55;;;20.00;57.50;;;;;;5048132;28;20195;-82
2021/08/25 00:57:14;;;;;;;2.88;2.20;;;20.00;57.50;;;;;;5064249;28;20222;-82
2021/08/25 00:59:44;;;;;;;3.50;2.40;;;19.90;57.50;;;;;;5031333;28;20593;-83
2021/08/25 01:02:29;;;;;;;3.35;2.47;;;20.00;57.50;;;;;;5047755;28;20187;-81
2021/08/25 01:04:58;;;;;;;3.50;2.60;;;20.00;57.50;;;;;;4997149;28;20206;-82
2021/08/25 01:07:28;;;;;;;3.92;2.47;;;20.00;57.50;;;;;;5048025;28;20191;-82
2021/08/25 01:09:56;;;;;;;3.63;2.40;;;19.90;57.50;;;;;;4996225;28;20711;-82
2021/08/25 01:12:25;;;;;;;3.10;2.40;;;19.90;57.50;;;;;;4997345;28;20176;-83
2021/08/25 01:14:51;;;;;;;3.13;2.50;;;20.00;57.50;;;;;;4996845;28;20619;-82
2021/08/25 01:17:23;;;;;;;3.88;2.40;;;19.90;57.50;;;;;;5049292;28;20235;-82
2021/08/25 01:19:56;;;;;;;3.42;2.42;;;20.00;57.50;;;;;;5043857;28;20228;-84
2021/08/25 01:22:28;;;;;;;3.58;2.40;;;20.00;57.60;;;;;;5079054;28;20161;-81
2021/08/25 01:24:54;;;;;;;3.10;2.60;;;20.00;57.60;;;;;;5028649;28;20214;-82
2021/08/25 01:27:20;;;;;;;3.65;2.70;;;20.00;57.60;;;;;;5020531;28;20226;-82
2021/08/25 01:29:47;;;;;;;3.35;2.40;;;20.00;57.50;;;;;;5003661;28;20172;-82
2021/08/25 01:32:13;;;;;;;3.88;2.50;;;20.00;57.50;;;;;;5003194;28;20583;-82
2021/08/25 01:34:55;;;;;;;3.58;2.67;;;19.90;57.50;;;;;;5020029;28;20156;-82
2021/08/25 01:37:22;;;;;;;3.30;2.42;;;20.00;57.60;;;;;;5020203;28;20181;-81
2021/08/25 01:39:49;;;;;;;3.63;2.60;;;20.00;57.50;;;;;;5020262;28;20183;-82
2021/08/25 01:42:17;;;;;;;3.70;2.35;;;20.00;57.50;;;;;;5019419;28;20181;-82
2021/08/25 01:44:44;;;;;;;3.60;2.60;;;19.90;57.50;;;;;;5003640;28;20167;-82
2021/08/25 01:47:11;;;;;;;3.53;2.47;;;19.90;57.50;;;;;;5019762;28;20263;-84
2021/08/25 01:49:41;;;;;;;2.80;2.22;;;20.00;57.50;;;;;;5003673;28;20266;-82
2021/08/25 01:52:08;;;;;;;3.15;2.35;;;20.00;57.60;;;;;;5019448;28;20646;-82
2021/08/25 01:54:34;;;;;;;3.40;2.30;;;20.00;57.50;;;;;;5020031;28;20179;-81
2021/08/25 01:57:00;;;;;;;3.20;2.47;;;20.00;57.50;;;;;;5019950;28;20160;-82
2021/08/25 01:59:31;;;;;;;2.92;2.30;;;20.00;57.50;;;;;;5019164;28;20262;-83
2021/08/25 02:01:57;;;;;;;3.33;2.55;;;20.00;57.50;;;;;;5002194;28;20179;-82
2021/08/25 02:04:28;;;;;;;2.95;2.20;;;20.00;57.50;;;;;;5019791;28;20164;-81
2021/08/25 02:06:54;;;;;;;3.85;2.70;;;20.00;57.50;;;;;;5002737;28;20192;-82
2021/08/25 02:09:25;;;;;;;4.38;2.22;;;19.90;57.50;;;;;;5019818;28;20170;-83
2021/08/25 02:11:55;;;;;;;3.22;2.45;;;20.00;57.50;;;;;;5002693;28;20211;-82
2021/08/25 02:14:21;;;;;;;3.47;2.40;;;20.00;57.50;;;;;;5002291;28;20216;-82
2021/08/25 02:16:47;;;;;;;3.20;2.38;;;20.00;57.50;;;;;;5031770;28;20226;-82
2021/08/25 02:19:13;;;;;;;3.63;2.60;;;20.00;57.50;;;;;;5022684;28;20199;-81
2021/08/25 02:21:43;;;;;;;2.70;2.28;;;20.00;57.50;;;;;;5038704;28;20524;-82
2021/08/25 02:24:09;;;;;;;3.33;2.38;;;20.00;57.50;;;;;;5074756;28;20228;-82
2021/08/25 02:26:35;;;;;;;3.05;2.28;;;20.00;57.50;;;;;;5022306;28;20171;-82
2021/08/25 02:29:05;;;;;;;3.20;2.35;;;20.00;57.50;;;;;;5038533;28;20266;-82
2021/08/25 02:31:35;;;;;;;3.45;2.42;;;19.90;57.50;;;;;;5074355;28;20179;-82
2021/08/25 02:34:05;;;;;;;4.13;2.50;;;20.00;57.50;;;;;;5006001;28;20235;-82
2021/08/25 02:36:30;;;;;;;2.88;2.45;;;20.00;57.50;;;;;;5057679;28;20186;-83
2021/08/25 02:38:56;;;;;;;3.17;2.60;;;20.00;57.60;;;;;;5038163;28;20522;-83
2021/08/25 02:41:22;;;;;;;3.10;2.45;;;20.00;57.60;;;;;;5038665;28;20689;-81
2021/08/25 02:43:52;;;;;;;3.70;2.63;;;19.90;57.50;;;;;;5006551;28;20652;-81
2021/08/25 02:46:20;;;;;;;3.03;2.15;;;20.00;57.60;;;;;;5056417;28;20182;-83
2021/08/25 02:48:46;;;;;;;3.03;2.30;;;19.90;57.50;;;;;;5004896;28;20190;-83
2021/08/25 02:51:12;;;;;;;5.38;2.88;;;20.00;57.60;;;;;;5022781;28;20170;-82
2021/08/25 02:53:40;;;;;;;4.03;2.35;;;19.90;57.60;;;;;;5091381;28;20190;-82
2021/08/25 02:56:11;;;;;;;2.97;2.33;;;19.90;57.50;;;;;;5005133;28;20191;-82
2021/08/25 02:58:38;;;;;;;3.35;2.50;;;20.00;57.60;;;;;;5107831;28;20206;-82
2021/08/25 03:01:08;;;;;;;3.45;2.40;;;20.00;57.60;;;;;;5090146;28;20660;-82
2021/08/25 03:03:35;;;;;;;2.85;2.15;;;20.00;57.60;;;;;;4988736;28;20603;-81
2021/08/25 03:06:02;;;;;;;2.92;2.38;;;19.90;57.60;;;;;;5005155;28;20189;-82
2021/08/25 03:08:35;;;;;;;3.22;2.67;;;20.00;57.60;;;;;;5022294;28;20181;-81
2021/08/25 03:11:01;;;;;;;2.65;2.20;;;20.00;57.70;;;;;;5006266;28;20544;-82
2021/08/25 03:13:28;;;;;;;3.28;2.47;;;20.00;57.60;;;;;;5022607;28;20187;-82
2021/08/25 03:15:56;;;;;;;3.22;2.33;;;20.00;57.60;;;;;;5004618;28;20294;-82
2021/08/25 03:18:28;;;;;;;4.00;2.67;;;20.00;57.60;;;;;;5006040;28;20620;-81
2021/08/25 03:21:02;;;;;;;3.63;2.60;;;20.00;57.60;;;;;;5055951;28;20213;-81
2021/08/25 03:23:36;;;;;;;3.88;2.70;;;20.00;57.60;;;;;;5073378;28;20186;-82
2021/08/25 03:26:08;;;;;;;3.95;2.72;;;19.90;57.60;;;;;;5055506;28;20185;-82
2021/08/25 03:28:35;;;;;;;3.70;2.70;;;19.90;57.60;;;;;;5056387;28;20185;-82
2021/08/25 03:31:02;;;;;;;3.92;2.53;;;20.00;57.70;;;;;;5073078;28;20261;-81
2021/08/25 03:33:31;;;;;;;3.28;2.50;;;20.00;57.60;;;;;;5039031;28;20174;-83
2021/08/25 03:35:59;;;;;;;3.33;2.50;;;20.00;57.60;;;;;;5089852;28;20193;-83
2021/08/25 03:38:27;;;;;;;3.38;2.45;;;20.00;57.60;;;;;;5003632;28;20206;-82
2021/08/25 03:40:54;;;;;;;3.75;2.50;;;20.00;57.60;;;;;;5004900;28;20665;-81
2021/08/25 03:43:26;;;;;;;2.95;2.40;;;19.90;57.60;;;;;;5004312;28;20218;-81
2021/08/25 03:45:56;;;;;;;2.92;2.22;;;20.00;57.70;;;;;;5089673;28;20186;-82
2021/08/25 03:48:23;;;;;;;3.25;2.45;;;19.90;57.60;;;;;;5090240;28;20582;-82
2021/08/25 03:50:54;;;;;;;3.88;2.58;;;19.90;57.60;;;;;;5057095;28;20179;-81
2021/08/25 03:53:21;;;;;;;2.97;2.35;;;20.00;57.70;;;;;;4972679;28;20179;-81
2021/08/25 03:55:49;;;;;;;3.30;2.50;;;20.00;57.70;;;;;;5073318;28;20182;-83
2021/08/25 03:58:19;;;;;;;3.67;2.50;;;20.00;57.60;;;;;;5004216;28;20182;-81
2021/08/25 04:00:52;;;;;;;3.63;2.30;;;19.90;57.60;;;;;;5005151;28;20187;-82
2021/08/25 04:03:20;;;;;;;3.10;2.30;;;19.90;57.60;;;;;;5088610;28;20189;-81
2021/08/25 04:05:47;;;;;;;3.05;2.17;;;20.00;57.70;;;;;;5089657;28;20206;-82
2021/08/25 04:08:14;;;;;;;4.25;2.70;;;20.00;57.70;;;;;;5072248;28;20179;-82
2021/08/25 04:10:41;;;;;;;3.08;2.40;;;20.00;57.70;;;;;;5004400;28;20257;-81
2021/08/25 04:13:11;;;;;;;3.88;2.40;;;20.00;57.70;;;;;;4988734;28;20186;-81
2021/08/25 04:15:39;;;;;;;3.50;2.80;;;20.00;57.80;;;;;;5108742;28;20237;-82
2021/08/25 04:18:07;;;;;;;4.50;2.65;;;20.00;57.70;;;;;;5024369;28;20258;-82
2021/08/25 04:20:32;;;;;;;3.05;2.35;;;20.00;57.90;;;;;;4992085;28;20186;-81
2021/08/25 04:23:02;;;;;;;4.18;2.45;;;19.90;57.90;;;;;;5028305;28;20162;-81
2021/08/25 04:25:31;;;;;;;3.20;2.30;;;19.90;58.20;;;;;;5079521;28;20217;-81
2021/08/25 04:27:57;;;;;;;2.88;2.22;;;19.90;58.30;;;;;;5078803;28;20182;-82
2021/08/25 04:30:24;;;;;;;2.03;1.83;;;19.90;59.20;;;;;;5077946;28;20185;-81
2021/08/25 04:32:50;;;;;;;2.90;2.50;;;19.90;59.40;;;;;;5027727;28;20206;-81
2021/08/25 04:35:17;;;;;;;2.88;2.20;;;19.90;59.60;;;;;;5043473;28;20595;-82
2021/08/25 04:37:47;;;;;;;2.95;2.38;;;19.90;59.60;;;;;;5079069;28;20553;-81
2021/08/25 04:40:14;;;;;;;3.28;2.40;;;19.90;59.80;;;;;;4992998;28;20304;-83
2021/08/25 04:42:41;;;;;;;3.17;2.22;;;19.90;60.00;;;;;;5076285;28;20178;-83
2021/08/25 04:45:08;;;;;;;3.67;2.65;;;19.80;60.00;;;;;;5076265;28;20186;-82
2021/08/25 04:47:38;;;;;;;3.58;2.60;;;19.90;60.10;;;;;;5058897;28;20178;-83
2021/08/25 04:50:08;;;;;;;3.35;2.40;;;19.90;60.00;;;;;;5007795;28;20323;-81
2021/08/25 04:52:35;;;;;;;3.13;2.53;;;19.80;60.30;;;;;;5060111;28;20227;-82
2021/08/25 04:55:05;;;;;;;2.92;2.22;;;19.90;60.90;;;;;;4991266;28;20195;-82
2021/08/25 04:57:35;;;;;;;2.50;2.30;;;19.80;60.60;;;;;;5076494;28;20245;-82
2021/08/25 05:00:02;;;;;;;2.75;2.42;;;19.90;61.10;;;;;;5080659;28;20221;-82
2021/08/25 05:02:29;;;;;;;3.72;2.40;;;19.80;61.20;;;;;;5044776;28;20241;-82
2021/08/25 05:04:55;;;;;;;3.20;2.40;;;19.80;61.20;;;;;;5045537;28;20162;-82
2021/08/25 05:07:21;;;;;;;2.88;2.35;;;19.80;62.20;;;;;;5028919;28;20158;-82
2021/08/25 05:09:51;;;;;;;2.80;2.38;;;19.80;61.80;;;;;;5044299;28;20617;-81
2021/08/25 05:12:21;;;;;;;3.30;2.45;;;19.80;62.10;;;;;;4995128;28;20185;-82
2021/08/25 05:14:47;;;;;;;2.60;2.28;;;19.80;61.80;;;;;;5062132;28;20617;-83
2021/08/25 05:17:13;;;;;;;2.92;2.30;;;19.80;62.20;;;;;;5027521;28;20278;-81
2021/08/25 05:19:43;;;;;;;3.28;2.33;;;19.80;62.10;;;;;;5043653;28;20676;-81
2021/08/25 05:22:09;;;;;;;3.00;2.60;;;19.80;62.70;;;;;;5061827;28;20186;-81
2021/08/25 05:24:41;;;;;;;3.25;2.20;;;19.80;62.50;;;;;;5043602;28;20170;-81
2021/08/25 05:27:07;;;;;;;3.63;2.70;;;19.80;62.90;;;;;;5080485;28;20183;-81
2021/08/25 05:29:33;;;;;;;2.58;2.30;;;19.80;62.90;;;;;;5043892;28;20523;-81
2021/08/25 05:32:00;;;;;;;3.28;2.72;;;19.80;63.10;;;;;;5044155;28;20163;-82
2021/08/25 05:34:26;;;;;;;3.30;2.40;;;19.80;63.60;;;;;;5045809;28;20194;-82
2021/08/25 05:36:54;;;;;;;2.90;2.50;;;19.80;63.50;;;;;;5045575;28;20200;-81
2021/08/25 05:39:23;;;;;;;3.85;2.83;;;19.80;63.90;;;;;;5048532;28;20182;-81
2021/08/25 05:41:52;;;;;;;3.00;2.30;;;19.80;63.80;;;;;;5048574;28;20150;-81
2021/08/25 05:44:17;;;;;;;3.35;2.60;;;19.80;64.30;;;;;;5048030;28;20224;-82
2021/08/25 05:46:43;;;;;;;3.40;2.55;;;19.80;64.30;;;;;;5047551;28;20163;-81
2021/08/25 05:49:09;;;;;;;2.85;2.40;;;19.80;64.40;;;;;;5046148;28;20166;-82
2021/08/25 05:51:35;;;;;;;2.47;2.20;;;19.80;64.40;;;;;;5043498;28;20154;-81
2021/08/25 05:54:01;;;;;;;3.80;2.67;;;19.80;64.60;;;;;;5043525;28;20177;-82
2021/08/25 05:56:27;;;;;;;2.75;2.47;;;19.80;64.80;;;;;;5061785;28;20166;-83
2021/08/25 05:58:57;;;;;;;4.40;2.50;;;19.80;65.10;;;;;;5044171;28;20257;-81
2021/08/25 06:01:24;;;;;;;4.28;2.88;;;19.80;64.80;;;;;;5044134;28;20163;-81
2021/08/25 06:03:50;;;;;;;3.83;2.63;;;19.80;66.20;;;;;;5024534;28;20644;-81
2021/08/25 06:06:20;;;;;;;3.03;2.65;;;19.80;65.60;;;;;;5024083;28;20174;-81
2021/08/25 06:08:46;;;;;;;4.05;2.63;;;19.80;66.20;;;;;;5006985;28;20191;-80
2021/08/25 06:11:13;;;;;;;7.43;2.60;;;19.80;66.20;;;;;;5025139;28;20177;-81
2021/08/25 06:13:46;;;;;;;3.85;2.70;;;19.80;66.30;;;;;;5006802;28;20167;-81
2021/08/25 06:16:12;;;;;;;3.92;2.53;;;19.80;66.30;;;;;;5074323;28;20222;-80
2021/08/25 06:18:40;;;;;;;3.47;2.88;;;19.90;67.10;;;;;;5007746;28;20207;-80
2021/08/25 06:21:13;;;;;;;3.30;2.47;;;19.90;66.70;;;;;;5057752;28;20202;-80
2021/08/25 06:23:41;;;;;;;3.53;2.90;;;19.90;67.20;;;;;;4974256;28;20186;-81
2021/08/25 06:26:07;;;;;;;4.15;2.85;;;19.90;66.90;;;;;;5058243;28;20186;-82
2021/08/25 06:28:35;;;;;;;3.60;2.88;;;19.90;66.90;;;;;;5024669;28;20548;-82
2021/08/25 06:31:03;;;;;;;3.13;2.83;;;19.90;67.30;;;;;;5093142;28;20216;-82
2021/08/25 06:33:29;;;;;;;5.45;3.33;;;20.00;67.00;;;;;;4992087;28;20269;-82
2021/08/25 06:35:56;;;;;;;2.97;2.67;;;20.00;66.40;;;;;;5024581;28;20584;-82
2021/08/25 06:38:24;;;;;;;4.18;3.03;;;20.00;65.70;;;;;;5008011;28;20244;-82
2021/08/25 06:40:54;;;;;;;2.97;2.58;;;20.00;65.90;;;;;;5060475;28;20179;-82
2021/08/25 06:43:21;;;;;;;3.45;2.85;;;20.00;65.70;;;;;;5060972;28;20235;-81
2021/08/25 06:45:47;;;;;;;3.45;2.83;;;20.00;65.50;;;;;;5003238;28;20185;-81
2021/08/25 06:48:14;;;;;;;3.58;2.92;;;19.90;65.40;;;;;;5028258;28;20229;-82
2021/08/25 06:50:41;;;;;;;3.95;2.78;;;20.00;65.40;;;;;;5029642;28;20249;-82
2021/08/25 06:53:09;;;;;;;4.32;3.08;;;20.10;65.60;;;;;;5044627;28;20314;-82
2021/08/25 06:55:38;;;;;;;3.75;2.75;;;20.10;65.20;;;;;;5027199;28;20182;-82
2021/08/25 06:58:05;;;;;;;3.53;2.90;;;20.10;64.80;;;;;;5027853;28;20165;-82
2021/08/25 07:00:31;;;;;;;3.83;2.92;;;20.10;64.40;;;;;;5061031;28;20281;-82
2021/08/25 07:02:57;;;;;;;3.13;2.53;;;20.10;65.10;;;;;;5043928;28;20150;-82
2021/08/25 07:05:24;;;;;;;3.67;2.60;;;20.10;65.70;;;;;;5061053;28;20203;-81
2021/08/25 07:07:54;;;;;;;3.50;2.65;;;20.20;65.10;;;;;;5026889;28;20254;-82
2021/08/25 07:10:20;;;;;;;3.28;2.60;;;20.20;65.50;;;;;;5095112;28;20186;-82
2021/08/25 07:12:46;;;;;;;3.22;2.65;;;20.10;65.90;;;;;;5043930;28;20162;-82
2021/08/25 07:15:16;;;;;;;3.50;2.55;;;20.00;66.30;;;;;;5043717;28;20169;-83
2021/08/25 07:17:43;;;;;;;3.72;2.78;;;19.90;66.90;;;;;;5027809;28;20274;-82
2021/08/25 07:20:13;;;;;;;4.78;2.83;;;19.90;67.40;;;;;;5025734;28;20190;-82
2021/08/25 07:22:40;;;;;;;4.65;2.67;;;19.80;67.90;;;;;;5026294;28;20189;-82
2021/08/25 07:25:10;;;;;;;3.45;2.70;;;19.80;68.40;;;;;;5027578;28;20213;-82
2021/08/25 07:27:36;;;;;;;3.55;2.63;;;19.80;68.60;;;;;;5095273;28;20192;-82
2021/08/25 07:30:03;;;;;;;3.05;2.70;;;19.80;68.80;;;;;;5027704;28;20253;-81
2021/08/25 07:32:29;;;;;;;3.63;3.05;;;19.80;69.10;;;;;;5043667;28;20162;-82
2021/08/25 07:34:59;;;;;;;3.40;3.00;;;19.90;69.00;;;;;;5043965;28;20163;-81
2021/08/25 07:37:25;;;;;;;4.22;2.70;;;19.90;68.90;;;;;;5094534;28;20186;-81
2021/08/25 07:39:51;;;;;;;3.50;2.83;;;20.00;68.70;;;;;;5027270;28;20190;-82
2021/08/25 07:42:21;;;;;;;3.33;2.72;;;20.10;68.50;;;;;;5026301;28;20169;-82
2021/08/25 07:44:51;;;;;;;2.92;2.45;;;20.10;68.40;;;;;;5094518;28;20245;-82
2021/08/25 07:47:17;;;;;;;3.25;2.75;;;20.00;68.20;;;;;;5026462;28;20174;-82
2021/08/25 07:49:43;;;;;;;3.08;2.58;;;20.20;68.10;;;;;;5043438;28;20174;-81
2021/08/25 07:52:09;;;;;;;4.00;2.83;;;20.20;67.80;;;;;;5060982;28;20180;-84
2021/08/25 07:54:40;;;;;;;3.30;2.70;;;20.10;67.60;;;;;;5042481;28;20211;-82
2021/08/25 07:57:06;;;;;;;3.63;3.17;;;20.20;67.40;;;;;;5008937;28;20185;-82
2021/08/25 07:59:32;;;;;;;5.82;2.97;;;20.20;67.40;;;;;;5041288;28;20185;-82
2021/08/25 08:01:58;;;;;;;3.25;2.95;;;20.10;67.30;;;;;;5042619;28;20150;-81
2021/08/25 08:04:28;;;;;;;3.50;2.97;;;20.20;67.00;;;;;;5043752;28;20157;-82
2021/08/25 08:06:58;;;;;;;3.72;3.10;;;20.20;66.90;;;;;;5010280;28;20195;-82
2021/08/25 08:09:27;;;;;;;3.70;2.80;;;20.30;66.90;;;;;;5112079;28;20273;-82
2021/08/25 08:11:57;;;;;;;3.53;2.80;;;20.30;66.70;;;;;;5043455;28;20214;-82
2021/08/25 08:14:28;;;;;;;3.72;2.95;;;20.40;66.50;;;;;;5079030;28;20242;-82
2021/08/25 08:16:59;;;;;;;3.75;3.10;;;20.30;66.20;;;;;;5026341;28;20685;-82
2021/08/25 08:19:33;;;;;;;4.55;3.13;;;20.40;66.00;;;;;;5026921;28;20610;-82
2021/08/25 08:22:04;;;;;;;3.63;2.80;;;20.40;65.80;;;;;;5044066;28;20153;-81
2021/08/25 08:24:36;;;;;;;3.25;2.70;;;20.40;65.80;;;;;;5094385;28;20207;-82
2021/08/25 08:27:07;;;;;;;3.70;2.97;;;20.40;65.80;;;;;;5009223;28;20216;-82
2021/08/25 08:29:33;;;;;;;4.28;2.80;;;20.40;65.70;;;;;;5025424;28;20232;-82
2021/08/25 08:31:59;;;;;;;3.70;3.10;;;20.40;65.70;;;;;;5026697;28;20166;-83
2021/08/25 08:34:25;;;;;;;3.20;2.90;;;20.30;65.70;;;;;;5043074;28;20169;-81
2021/08/25 08:36:51;;;;;;;3.10;2.70;;;20.40;65.70;;;;;;5043255;28;20158;-81
2021/08/25 08:39:21;;;;;;;3.47;2.60;;;20.40;65.50;;;;;;5044092;28;20242;-82
2021/08/25 08:41:48;;;;;;;2.85;2.55;;;20.50;65.20;;;;;;5024756;28;20272;-82
2021/08/25 08:44:20;;;;;;;3.03;2.70;;;20.50;65.20;;;;;;5044141;28;20154;-82
2021/08/25 08:46:49;;;;;;;3.10;2.65;;;20.50;64.90;;;;;;5010346;28;20288;-82
2021/08/25 08:49:18;;;;;;;3.13;2.78;;;20.50;65.10;;;;;;5043257;28;20209;-81
2021/08/25 08:51:45;;;;;;;3.58;2.95;;;20.40;65.10;;;;;;5008191;28;20185;-82
2021/08/25 08:54:11;;;;;;;3.50;2.90;;;20.40;65.10;;;;;;5027206;28;20174;-82
2021/08/25 08:56:37;;;;;;;2.85;2.53;;;20.50;65.30;;;;;;5042578;28;20158;-81
2021/08/25 08:59:08;;;;;;;3.55;2.80;;;20.50;65.00;;;;;;5043124;28;20551;-81
2021/08/25 09:01:39;;;;;;;3.08;2.75;;;20.60;64.90;;;;;;5026793;28;20234;-81
2021/08/25 09:04:30;;;;;;;3.05;2.67;;;20.50;64.90;;;;;;5006703;28;20641;-86
2021/08/25 09:07:02;;;;;;;3.17;2.75;;;20.50;65.00;;;;;;5021882;28;20188;-84
2021/08/25 09:09:50;;;;;;;3.35;2.92;;;20.50;64.80;;;;;;5070932;28;20269;-83
2021/08/25 09:12:21;;;;;;;3.28;2.45;;;20.60;64.90;;;;;;5094604;28;20182;-84
2021/08/25 09:14:52;;;;;;;3.00;2.35;;;20.60;64.70;;;;;;5015799;28;20185;-86
2021/08/25 09:17:31;;;;;;;3.00;2.70;;;20.60;64.70;;;;;;5019191;28;20218;-86
2021/08/25 09:20:18;;;;;;;4.28;2.70;;;20.50;65.00;;;;;;5000766;28;20300;-84
2021/08/25 09:23:00;;;;;;;3.65;2.88;;;20.50;65.10;;;;;;5007468;28;20521;-86
2021/08/25 09:25:36;;;;;;;5.45;2.67;;;20.40;65.40;;;;;;5061267;28;20181;-88
2021/08/25 09:28:08;;;;;;;3.28;2.70;;;20.30;65.60;;;;;;4999622;28;20185;-86
2021/08/25 09:30:56;;;;;;;3.22;2.63;;;20.30;65.80;;;;;;5066923;28;20193;-86
2021/08/25 09:33:28;;;;;;;2.92;2.50;;;20.20;65.80;;;;;;5032391;28;20167;-85
2021/08/25 09:36:00;;;;;;;2.78;2.30;;;20.20;65.70;;;;;;5066345;28;20182;-84
2021/08/25 09:38:30;;;;;;;2.90;2.22;;;20.20;65.60;;;;;;4998706;28;20182;-85
2021/08/25 09:41:05;;;;;;;2.55;2.20;;;20.10;65.70;;;;;;4998606;28;20178;-83
2021/08/25 09:43:50;;;;;;;2.58;2.20;;;20.10;65.80;;;;;;5100459;28;20177;-85
2021/08/25 09:46:22;;;;;;;3.67;2.25;;;20.00;65.70;;;;;;5020395;28;20217;-83
2021/08/25 09:48:53;;;;;;;2.50;2.20;;;20.00;66.40;;;;;;5018559;28;20273;-82
2021/08/25 09:51:24;;;;;;;1.95;1.80;;;20.00;65.40;;;;;;5022825;28;20185;-84
2021/08/25 09:54:11;;;;;;;2.45;1.90;;;20.00;65.40;;;;;;5007250;28;20278;-83
2021/08/25 09:56:43;;;;;;;2.80;2.00;;;20.00;65.00;;;;;;5014404;28;20182;-84
2021/08/25 09:59:13;;;;;;;2.42;1.92;;;20.00;64.80;;;;;;5004875;28;20729;-86
2021/08/25 10:01:41;;;;;;;2.42;1.95;;;20.00;65.00;;;;;;5004422;28;20178;-84
2021/08/25 10:04:14;;;;;;;2.20;1.80;;;20.00;64.90;;;;;;5006288;28;20174;-85
2021/08/25 10:06:49;;;;;;;2.47;1.63;;;20.00;64.80;;;;;;5007726;28;20181;-86
2021/08/25 10:09:24;;;;;;;1.58;1.40;;;20.00;64.70;;;;;;5006932;28;20193;-86
2021/08/25 10:11:57;;;;;;;2.25;1.85;;;20.00;64.60;;;;;;5024336;28;20660;-79
2021/08/25 10:14:25;;;;;;;2.03;1.50;;;20.00;64.50;;;;;;5003605;28;20198;-81
2021/08/25 10:16:53;;;;;;;3.03;1.40;;;20.00;64.30;;;;;;5095490;28;20233;-78
2021/08/25 10:19:38;;;;;;;2.97;1.50;;;20.10;63.80;;;;;;5097715;28;20311;-77
2021/08/25 10:22:23;;;;;;;2.03;1.38;;;20.10;63.70;;;;;;5115772;28;20185;-80
2021/08/25 10:25:02;;;;;;;2.10;1.30;;;20.00;63.60;;;;;;5045365;28;20161;-79
2021/08/25 10:27:30;;;;;;;1.65;1.30;;;19.90;63.40;;;;;;5046001;28;20154;-79
2021/08/25 10:30:09;;;;;;;1.33;1.15;;;19.90;63.20;;;;;;5115833;28;20177;-78
2021/08/25 10:33:02;;;;;;;1.33;1.10;;;19.90;63.00;;;;;;5028215;28;20186;-80
2021/08/25 10:35:34;;;;;;;1.70;1.20;;;19.90;63.10;;;;;;5018863;28;20303;-78
2021/08/25 10:38:24;;;;;;;2.40;1.10;;;19.80;63.00;;;;;;5095223;28;20186;-79
2021/08/25 10:40:52;;;;;;;1.50;1.25;;;19.90;63.10;;;;;;5036136;28;20186;-80
2021/08/25 10:43:34;;;;;;;1.42;1.33;;;19.90;63.30;;;;;;5090834;28;20208;-81
2021/08/25 10:46:01;;;;;;;1.25;1.10;;;19.90;63.40;;;;;;5041457;28;20184;-79
2021/08/25 10:48:42;;;;;;;1.33;1.13;;;19.90;63.30;;;;;;5092906;28;20657;-80
2021/08/25 10:51:22;;;;;;;1.40;1.20;;;19.80;63.30;;;;;;5024374;28;20221;-80
2021/08/25 10:53:49;;;;;;;1.02;0.90;;;19.80;63.20;;;;;;5062794;28;20157;-80
2021/08/25 10:56:18;;;;;;;2.60;1.10;;;19.90;63.20;;;;;;5024729;28;20194;-79
2021/08/25 10:58:51;;;;;;;1.10;1.00;;;19.80;63.10;;;;;;5060267;28;20207;-78
2021/08/25 11:01:29;;;;;;;1.55;1.27;;;19.80;62.90;;;;;;5110114;28;20586;-80
2021/08/25 11:03:57;;;;;;;1.10;1.00;;;19.80;62.80;;;;;;5109902;28;20213;-77
2021/08/25 11:06:44;;;;;;;1.65;1.23;;;19.80;63.60;;;;;;5108563;28;20189;-79
2021/08/25 11:09:14;;;;;;;1.17;1.08;;;19.70;62.80;;;;;;5024965;28;20185;-79
2021/08/25 11:11:44;;;;;;;2.55;1.15;;;19.80;62.70;;;;;;5105887;28;20186;-81
2021/08/25 11:14:22;;;;;;;1.83;1.25;;;19.80;62.70;;;;;;5105843;28;20197;-80
2021/08/25 11:16:50;;;;;;;1.45;0.93;;;19.80;62.60;;;;;;5103254;28;20225;-81
2021/08/25 11:19:22;;;;;;;1.55;1.45;;;19.80;62.70;;;;;;5085866;28;20216;-82
2021/08/25 11:21:50;;;;;;;1.30;1.20;;;19.80;63.10;;;;;;5085235;28;20178;-81
2021/08/25 11:24:16;;;;;;;0.82;0.82;;;19.80;62.90;;;;;;5100417;28;20194;-78
2021/08/25 11:26:43;;;;;;;1.20;1.10;;;19.70;62.90;;;;;;5066129;28;20180;-79
2021/08/25 11:29:21;;;;;;;1.10;1.00;;;19.80;62.90;;;;;;5051368;28;20259;-81
2021/08/25 11:31:48;;;;;;;1.00;0.90;;;19.80;62.70;;;;;;5033885;28;20245;-79
2021/08/25 11:34:15;;;;;;;1.35;1.17;;;19.70;62.60;;;;;;5033614;28;20186;-77
2021/08/25 11:36:51;;;;;;;1.10;1.00;;;19.70;62.60;;;;;;5017383;28;20242;-80
2021/08/25 11:39:17;;;;;;;1.13;1.00;;;19.70;62.80;;;;;;5051078;28;20185;-79
2021/08/25 11:41:45;;;;;;;0.88;0.73;;;19.70;62.30;;;;;;5053865;28;20151;-77
2021/08/25 11:44:10;;;;;;;0.95;0.85;;;19.80;62.20;;;;;;5051114;28;20155;-81
2021/08/25 11:46:36;;;;;;;0.65;0.63;;;19.80;62.10;;;;;;5033208;28;20176;-80
2021/08/25 11:49:02;;;;;;;1.10;0.93;;;19.80;62.10;;;;;;5051048;28;20244;-77
2021/08/25 11:51:27;;;;;;;1.05;0.90;;;19.80;61.80;;;;;;5033194;28;20158;-81
2021/08/25 11:53:54;;;;;;;1.48;0.70;;;19.80;61.90;;;;;;5033966;28;20174;-78
2021/08/25 11:56:20;;;;;;;0.77;0.77;;;19.80;62.00;;;;;;5033198;28;20637;-80
2021/08/25 11:58:46;;;;;;;0.90;0.80;;;19.80;61.90;;;;;;5050980;28;20652;-80
2021/08/25 12:01:27;;;;;;;0.88;0.75;;;19.80;62.10;;;;;;5051276;28;20237;-81
2021/08/25 12:03:54;;;;;;;0.77;0.77;;;19.80;62.20;;;;;;5052013;28;20162;-78
2021/08/25 12:06:20;;;;;;;1.05;0.88;;;19.80;62.30;;;;;;5017241;28;20583;-80
2021/08/25 12:08:47;;;;;;;0.77;0.70;;;19.80;62.30;;;;;;5050745;28;20663;-80
2021/08/25 12:11:14;;;;;;;0.65;0.65;;;19.70;62.50;;;;;;5050650;28;20299;-79
2021/08/25 12:13:43;;;;;;;1.95;0.88;;;19.70;62.60;;;;;;5037312;28;20169;-81
2021/08/25 12:16:21;;;;;;;1.83;0.90;;;19.80;62.70;;;;;;5031857;28;20715;-80
2021/08/25 12:18:50;;;;;;;2.03;0.93;;;19.70;62.70;;;;;;5031716;28;20190;-78
2021/08/25 12:21:17;;;;;;;0.88;0.80;;;19.80;62.70;;;;;;5033719;28;20158;-78
2021/08/25 12:24:11;;;;;;;0.60;0.60;;;19.80;62.60;;;;;;5030311;28;20228;-79
2021/08/25 12:26:39;;;;;;;1.00;0.80;;;19.80;62.50;;;;;;5032321;28;20602;-81
2021/08/25 12:29:06;;;;;;;1.10;0.80;;;19.80;62.50;;;;;;5086555;28;20183;-81
2021/08/25 12:31:34;;;;;;;1.10;1.00;;;19.80;62.60;;;;;;5014603;28;20281;-81
2021/08/25 12:34:05;;;;;;;1.20;1.10;;;19.80;62.70;;;;;;5029740;28;20155;-80
2021/08/25 12:36:34;;;;;;;1.00;0.90;;;19.90;62.50;;;;;;5029879;28;20606;-81
2021/08/25 12:39:12;;;;;;;1.02;0.93;;;19.90;62.60;;;;;;5030781;28;20281;-78
2021/08/25 12:41:39;;;;;;;3.35;0.98;;;19.90;62.50;;;;;;5030401;28;20190;-83
2021/08/25 12:44:05;;;;;;;1.40;0.95;;;19.90;62.40;;;;;;5029591;28;20151;-82
2021/08/25 12:46:31;;;;;;;0.90;0.77;;;19.90;62.20;;;;;;5016361;28;20170;-82
2021/08/25 12:48:57;;;;;;;1.00;0.90;;;20.00;62.10;;;;;;5034292;28;20506;-86
2021/08/25 12:51:23;;;;;;;1.23;0.90;;;20.00;62.00;;;;;;5033492;28;20622;-81
2021/08/25 12:53:50;;;;;;;2.15;1.00;;;20.00;61.90;;;;;;5032503;28;20162;-81
2021/08/25 12:56:16;;;;;;;0.80;0.77;;;20.00;61.80;;;;;;5033806;28;20169;-80
2021/08/25 12:58:43;;;;;;;0.98;0.90;;;20.10;61.50;;;;;;5077712;28;20261;-78